createdAt,value
2023-03-24T00:01:26.025Z,42.50
2023-03-24T00:03:54.350Z,42.10
2023-03-24T00:06:22.144Z,45.70
2023-03-24T00:08:50.529Z,34.90
2023-03-24T00:11:19.065Z,48.00
2023-03-24T00:13:50.760Z,37.70
2023-03-24T00:16:20.190Z,37.40
2023-03-24T00:18:52.373Z,50.70
2023-03-24T00:21:26.297Z,38.70
2023-03-24T00:24:00.906Z,37.60
2023-03-24T00:26:36.826Z,40.40
2023-03-24T00:29:05.517Z,38.00
2023-03-24T00:31:33.871Z,34.70
2023-03-24T00:34:03.131Z,37.90
2023-03-24T00:36:34.320Z,37.20
2023-03-24T00:39:06.051Z,30.20
2023-03-24T00:41:34.537Z,37.30
2023-03-24T00:44:05.547Z,31.70
2023-03-24T00:46:34.667Z,35.50
2023-03-24T00:49:05.394Z,34.60
2023-03-24T00:51:35.821Z,32.30
2023-03-24T00:54:03.480Z,36.80
2023-03-24T00:56:35.139Z,30.40
2023-03-24T00:59:02.735Z,33.10
2023-03-24T01:01:35.865Z,34.20
2023-03-24T01:04:05.452Z,26.30
2023-03-24T01:06:36.711Z,28.80
2023-03-24T01:09:05.396Z,39.20
2023-03-24T01:11:40.745Z,31.60
2023-03-24T01:14:09.229Z,26.80
2023-03-24T01:16:39.164Z,33.50
2023-03-24T01:19:08.747Z,28.80
2023-03-24T01:21:38.361Z,29.40
2023-03-24T01:24:05.689Z,36.10
2023-03-24T01:26:32.835Z,30.10
2023-03-24T01:29:00.213Z,32.40
2023-03-24T01:31:27.491Z,29.50
2023-03-24T01:33:55.419Z,26.40
2023-03-24T01:36:24.361Z,28.90
2023-03-24T01:38:51.625Z,31.30
2023-03-24T01:41:19.214Z,30.70
2023-03-24T01:43:46.683Z,26.10
2023-03-24T01:46:21.376Z,36.70
2023-03-24T01:48:59.520Z,33.70
2023-03-24T01:51:31.690Z,28.70
2023-03-24T01:56:36.629Z,26.80
2023-03-24T01:59:07.687Z,31.20
2023-03-24T02:01:49.494Z,41.80
2023-03-24T02:04:47.944Z,30.70
2023-03-24T02:07:32.886Z,32.20
2023-03-24T02:10:06.468Z,30.30
2023-03-24T02:12:34.332Z,27.90
2023-03-24T02:15:08.400Z,28.70
2023-03-24T02:18:01.651Z,30.00
2023-03-24T02:23:20.382Z,31.90
2023-03-24T02:26:13.453Z,28.80
2023-03-24T02:29:10.685Z,28.20
2023-03-24T02:32:08.770Z,24.00
2023-03-24T02:34:57.813Z,25.60
2023-03-24T02:37:37.419Z,31.30
2023-03-24T02:40:30.897Z,32.70
2023-03-24T02:43:00.330Z,30.10
2023-03-24T02:45:52.714Z,25.00
2023-03-24T02:48:43.038Z,26.10
2023-03-24T02:51:40.031Z,27.80
2023-03-24T02:54:17.403Z,29.40
2023-03-24T02:56:54.047Z,29.60
2023-03-24T02:59:56.822Z,28.00
2023-03-24T03:03:53.380Z,24.00
2023-03-24T03:06:27.846Z,27.10
2023-03-24T03:11:26.823Z,23.50
2023-03-24T03:14:06.585Z,26.80
2023-03-24T03:16:40.726Z,23.50
2023-03-24T03:19:18.287Z,27.20
2023-03-24T03:21:50.515Z,30.70
2023-03-24T03:24:27.555Z,24.00
2023-03-24T03:27:08.566Z,23.10
2023-03-24T03:29:39.809Z,23.90
2023-03-24T03:32:11.337Z,32.20
2023-03-24T03:35:09.922Z,29.40
2023-03-24T03:37:56.914Z,29.40
2023-03-24T03:40:43.260Z,29.50
2023-03-24T03:43:19.956Z,32.00
2023-03-24T03:45:50.724Z,29.70
2023-03-24T03:48:27.763Z,26.80
2023-03-24T03:51:13.606Z,31.10
2023-03-24T03:53:54.893Z,27.60
2023-03-24T03:56:28.769Z,29.70
2023-03-24T03:59:07.303Z,27.40
2023-03-24T04:01:42.143Z,33.20
2023-03-24T04:04:41.142Z,31.30
2023-03-24T04:08:06.212Z,33.90
2023-03-24T04:11:31.521Z,27.10
2023-03-24T04:14:32.274Z,26.40
2023-03-24T04:17:47.653Z,25.50
2023-03-24T04:20:46.792Z,26.70
2023-03-24T04:23:27.547Z,26.60
2023-03-24T04:26:19.106Z,27.80
2023-03-24T04:28:58.467Z,26.30
2023-03-24T04:31:53.603Z,27.20
2023-03-24T04:34:30.163Z,27.50
2023-03-24T04:37:12.764Z,27.70
2023-03-24T04:39:52.025Z,32.20
2023-03-24T04:42:29.056Z,32.20
2023-03-24T04:45:01.088Z,28.30
2023-03-24T04:47:57.245Z,28.50
2023-03-24T04:51:03.855Z,28.90
2023-03-24T04:53:45.968Z,30.10
2023-03-24T04:56:51.132Z,38.50
2023-03-24T04:59:31.559Z,35.00
2023-03-24T05:02:01.544Z,35.50
2023-03-24T05:04:37.636Z,28.80
2023-03-24T05:07:21.594Z,28.60
2023-03-24T05:09:52.518Z,29.00
2023-03-24T05:12:27.920Z,42.70
2023-03-24T05:15:33.533Z,24.20
2023-03-24T05:18:23.439Z,30.70
2023-03-24T05:20:51.961Z,33.90
2023-03-24T05:23:22.233Z,33.10
2023-03-24T05:25:55.000Z,30.00
2023-03-24T05:28:26.536Z,38.80
2023-03-24T05:30:56.983Z,34.70
2023-03-24T05:33:45.063Z,29.70
2023-03-24T05:36:22.858Z,32.40
2023-03-24T05:39:00.226Z,32.80
2023-03-24T05:41:39.023Z,34.00
2023-03-24T05:44:09.022Z,32.20
2023-03-24T05:46:39.197Z,35.70
2023-03-24T05:49:13.576Z,32.20
2023-03-24T05:51:44.811Z,30.20
2023-03-24T05:54:16.526Z,43.30
2023-03-24T05:56:49.484Z,36.90
2023-03-24T05:59:46.702Z,34.50
2023-03-24T06:02:26.975Z,36.20
2023-03-24T06:05:10.710Z,33.40
2023-03-24T06:07:42.735Z,27.30
2023-03-24T06:10:18.542Z,32.40
2023-03-24T06:12:53.009Z,39.30
2023-03-24T06:15:36.247Z,37.10
2023-03-24T06:18:28.266Z,40.90
2023-03-24T06:21:02.938Z,32.20
2023-03-24T06:23:36.240Z,31.60
2023-03-24T06:26:16.949Z,32.20
2023-03-24T06:28:58.329Z,30.30
2023-03-24T06:31:33.131Z,36.90
2023-03-24T06:34:04.629Z,35.60
2023-03-24T06:36:34.953Z,45.00
2023-03-24T06:39:06.083Z,35.10
2023-03-24T06:41:34.982Z,33.80
2023-03-24T06:44:10.812Z,34.20
2023-03-24T06:46:59.958Z,36.60
2023-03-24T06:49:31.251Z,30.30
2023-03-24T06:54:31.158Z,31.00
2023-03-24T06:57:01.331Z,32.80
2023-03-24T06:59:41.406Z,32.50
2023-03-24T07:02:19.940Z,30.50
2023-03-24T07:04:50.870Z,32.50
2023-03-24T07:08:12.802Z,46.00
2023-03-24T07:10:31.305Z,38.00
2023-03-24T07:13:04.019Z,43.40
2023-03-24T07:15:33.132Z,37.60
2023-03-24T07:18:02.359Z,36.00
2023-03-24T07:20:39.892Z,38.50
2023-03-24T07:23:15.391Z,38.20
2023-03-24T07:26:10.915Z,34.00
2023-03-24T07:29:01.480Z,50.30
2023-03-24T07:31:53.589Z,34.50
2023-03-24T07:34:23.441Z,31.70
2023-03-24T07:36:54.978Z,31.70
2023-03-24T07:39:26.973Z,42.10
2023-03-24T07:41:56.393Z,47.90
2023-03-24T07:44:45.119Z,39.80
2023-03-24T07:47:19.802Z,37.70
2023-03-24T07:49:49.475Z,36.40
2023-03-24T07:52:17.940Z,39.70
2023-03-24T07:54:56.724Z,31.00
2023-03-24T07:57:46.766Z,30.10
2023-03-24T08:00:22.694Z,34.60
2023-03-24T08:03:09.931Z,42.30
2023-03-24T08:05:53.213Z,35.10
2023-03-24T08:08:37.598Z,37.70
2023-03-24T08:11:07.807Z,32.30
2023-03-24T08:13:45.519Z,31.10
2023-03-24T08:16:25.071Z,31.20
2023-03-24T08:19:00.904Z,34.90
2023-03-24T08:21:32.435Z,37.70
2023-03-24T08:24:04.129Z,31.00
2023-03-24T08:26:41.492Z,38.40
2023-03-24T08:29:12.828Z,39.90
2023-03-24T08:31:48.874Z,35.00
2023-03-24T08:34:22.529Z,33.00
2023-03-24T08:36:54.453Z,35.90
2023-03-24T08:39:26.102Z,43.00
2023-03-24T08:41:57.875Z,36.00
2023-03-24T08:44:28.194Z,34.10
2023-03-24T08:46:57.910Z,33.90
2023-03-24T08:49:34.668Z,44.10
2023-03-24T08:52:08.224Z,41.90
2023-03-24T08:54:44.907Z,36.60
2023-03-24T08:57:17.725Z,41.50
2023-03-24T08:59:50.877Z,30.30
2023-03-24T09:02:25.962Z,37.30
2023-03-24T09:04:56.455Z,31.80
2023-03-24T09:07:26.365Z,32.20
2023-03-24T09:09:55.105Z,27.80
2023-03-24T09:12:33.169Z,35.60
2023-03-24T09:15:09.731Z,31.90
2023-03-24T09:17:45.197Z,28.70
2023-03-24T09:20:16.048Z,30.10
2023-03-24T09:22:51.897Z,30.90
2023-03-24T09:25:24.694Z,24.70
2023-03-24T09:28:00.152Z,30.80
2023-03-24T09:30:33.329Z,42.00
2023-03-24T09:33:10.390Z,27.70
2023-03-24T09:35:44.853Z,34.10
2023-03-24T09:38:20.347Z,42.20
2023-03-24T09:41:03.832Z,32.80
2023-03-24T09:44:02.829Z,32.60
2023-03-24T09:46:50.369Z,34.00
2023-03-24T09:49:29.042Z,33.30
2023-03-24T09:52:12.379Z,28.70
2023-03-24T09:54:49.676Z,34.10
2023-03-24T09:57:47.838Z,25.30
2023-03-24T10:00:24.071Z,28.00
2023-03-24T10:03:26.199Z,42.60
2023-03-24T10:06:02.443Z,31.30
2023-03-24T10:09:02.260Z,33.40
2023-03-24T10:11:45.492Z,25.30
2023-03-24T10:14:44.699Z,34.10
2023-03-24T10:17:21.047Z,30.20
2023-03-24T10:20:19.539Z,23.90
2023-03-24T10:23:04.703Z,27.20
2023-03-24T10:26:14.260Z,30.20
2023-03-24T10:28:52.771Z,28.30
2023-03-24T10:31:40.998Z,26.00
2023-03-24T10:34:18.491Z,25.60
2023-03-24T10:36:49.838Z,18.10
2023-03-24T10:39:24.129Z,23.40
2023-03-24T10:41:59.203Z,20.30
2023-03-24T10:44:30.965Z,23.30
2023-03-24T10:47:05.478Z,18.30
2023-03-24T10:49:35.802Z,16.90
2023-03-24T10:52:10.141Z,20.60
2023-03-24T10:54:39.979Z,24.10
2023-03-24T10:57:21.589Z,22.10
2023-03-24T10:59:57.138Z,26.30
2023-03-24T11:02:38.216Z,20.30
2023-03-24T11:05:24.428Z,36.00
2023-03-24T11:07:53.970Z,31.50
2023-03-24T11:10:41.909Z,21.10
2023-03-24T11:13:36.757Z,22.10
2023-03-24T11:16:18.324Z,18.30
2023-03-24T11:19:04.570Z,25.10
2023-03-24T11:21:40.455Z,24.90
2023-03-24T11:24:47.348Z,26.80
2023-03-24T11:27:36.428Z,22.20
2023-03-24T11:30:16.313Z,23.00
2023-03-24T11:32:51.692Z,27.30
2023-03-24T11:35:35.386Z,21.00
2023-03-24T11:38:23.028Z,22.60
2023-03-24T11:41:01.634Z,18.00
2023-03-24T11:43:31.372Z,20.70
2023-03-24T11:46:10.676Z,25.20
2023-03-24T11:48:56.597Z,23.70
2023-03-24T11:51:38.799Z,19.90
2023-03-24T11:54:17.863Z,17.60
2023-03-24T11:56:48.381Z,26.10
2023-03-24T11:59:23.910Z,16.90
2023-03-24T12:02:11.774Z,18.60
2023-03-24T12:11:46.857Z,16.10
2023-03-24T12:14:54.028Z,18.00
2023-03-24T12:20:15.931Z,22.40
2023-03-24T12:23:14.908Z,17.40
2023-03-24T12:26:07.207Z,21.30
2023-03-24T12:28:46.276Z,17.30
2023-03-24T12:31:38.503Z,23.70
2023-03-24T12:34:36.838Z,13.60
2023-03-24T12:37:20.577Z,12.60
2023-03-24T12:40:22.309Z,31.90
2023-03-24T12:43:01.348Z,17.10
2023-03-24T12:45:53.848Z,23.20
2023-03-24T12:48:31.579Z,20.30
2023-03-24T12:51:24.650Z,23.10
2023-03-24T12:54:28.428Z,20.60
2023-03-24T12:57:08.129Z,14.00
2023-03-24T13:00:11.413Z,21.80
2023-03-24T13:02:49.273Z,12.80
2023-03-24T13:05:32.913Z,15.60
2023-03-24T13:08:07.585Z,13.80
2023-03-24T13:10:47.720Z,16.30
2023-03-24T13:13:25.893Z,11.40
2023-03-24T13:16:03.315Z,15.80
2023-03-24T13:18:53.448Z,22.70
2023-03-24T13:21:28.338Z,16.20
2023-03-24T13:24:12.210Z,8.80
2023-03-24T13:27:26.214Z,16.50
2023-03-24T13:30:02.628Z,15.30
2023-03-24T13:32:54.777Z,23.30
2023-03-24T13:35:39.896Z,13.20
2023-03-24T13:38:33.385Z,14.10
2023-03-24T13:41:08.465Z,9.00
2023-03-24T13:43:39.474Z,15.10
2023-03-24T13:46:14.987Z,12.00
2023-03-24T13:49:01.214Z,9.30
2023-03-24T13:51:33.353Z,9.90
2023-03-24T13:54:07.783Z,20.30
2023-03-24T13:56:50.572Z,9.70
2023-03-24T14:00:01.362Z,13.20
2023-03-24T14:02:58.627Z,11.90
2023-03-24T14:06:02.922Z,28.60
2023-03-24T14:08:50.188Z,27.20
2023-03-24T14:12:11.623Z,14.00
2023-03-24T14:15:33.426Z,21.60
2023-03-24T14:18:28.329Z,11.40
2023-03-24T14:24:45.863Z,18.40
2023-03-24T14:27:36.027Z,19.00
2023-03-24T14:30:31.807Z,12.70
2023-03-24T14:33:02.446Z,15.00
2023-03-24T14:35:46.090Z,12.10
2023-03-24T14:38:16.878Z,7.70
2023-03-24T14:40:50.292Z,13.00
2023-03-24T14:43:48.678Z,14.20
2023-03-24T14:46:41.622Z,15.00
2023-03-24T14:49:25.024Z,18.10
2023-03-24T14:52:25.226Z,18.20
2023-03-24T14:55:01.827Z,19.70
2023-03-24T14:57:44.219Z,12.80
2023-03-24T15:00:49.378Z,12.30
2023-03-24T15:03:24.523Z,12.30
2023-03-24T15:05:54.868Z,13.60
2023-03-24T15:08:28.570Z,13.80
2023-03-24T15:11:05.144Z,11.10
2023-03-24T15:13:43.033Z,10.30
2023-03-24T15:16:14.057Z,12.50
2023-03-24T15:19:02.525Z,11.30
2023-03-24T15:21:39.100Z,12.90
2023-03-24T15:24:24.597Z,19.40
2023-03-24T15:26:54.903Z,21.60
2023-03-24T15:29:26.262Z,12.60
2023-03-24T15:31:57.759Z,16.00
2023-03-24T15:34:45.442Z,19.20
2023-03-24T15:37:51.029Z,18.50
2023-03-24T15:40:27.563Z,14.60
2023-03-24T15:43:00.547Z,17.00
2023-03-24T15:46:01.158Z,21.10
2023-03-24T15:48:46.714Z,11.30
2023-03-24T15:51:23.020Z,15.00
2023-03-24T15:54:50.249Z,18.40
2023-03-24T15:57:26.271Z,18.40
2023-03-24T16:00:16.279Z,18.90
2023-03-24T16:03:00.781Z,16.00
2023-03-24T16:05:31.247Z,12.80
2023-03-24T16:08:10.464Z,18.40
2023-03-24T16:10:56.019Z,18.80
2023-03-24T16:13:58.536Z,25.60
2023-03-24T16:16:31.704Z,30.00
2023-03-24T16:19:05.191Z,29.70
2023-03-24T16:21:38.240Z,25.40
2023-03-24T16:24:13.121Z,28.40
2023-03-24T16:26:44.006Z,24.90
2023-03-24T16:32:00.214Z,18.40
2023-03-24T16:34:28.838Z,17.00
2023-03-24T16:37:00.106Z,21.00
2023-03-24T16:39:33.175Z,24.80
2023-03-24T16:42:06.678Z,26.10
2023-03-24T16:44:38.736Z,20.00
2023-03-24T16:47:11.148Z,25.80
2023-03-24T16:49:44.086Z,22.80
2023-03-24T16:52:12.973Z,23.70
2023-03-24T16:54:42.084Z,24.30
2023-03-24T16:57:11.773Z,23.30
2023-03-24T17:02:10.851Z,22.40
2023-03-24T17:04:48.864Z,23.60
2023-03-24T17:07:26.783Z,19.60
2023-03-24T17:09:55.646Z,25.10
2023-03-24T17:12:22.887Z,18.90
2023-03-24T17:14:55.200Z,17.70
2023-03-24T17:17:23.090Z,17.80
2023-03-24T17:19:52.806Z,32.40
2023-03-24T17:22:21.500Z,27.20
2023-03-24T17:24:57.784Z,20.00
2023-03-24T17:27:29.849Z,15.60
2023-03-24T17:30:01.788Z,20.20
2023-03-24T17:32:35.566Z,17.00
2023-03-24T17:35:07.304Z,17.30
2023-03-24T17:37:42.451Z,20.40
2023-03-24T17:40:11.593Z,21.70
2023-03-24T17:42:46.340Z,20.00
2023-03-24T17:45:18.713Z,17.90
2023-03-24T17:47:59.581Z,20.50
2023-03-24T17:50:39.755Z,22.50
2023-03-24T17:53:13.450Z,20.60
2023-03-24T17:55:41.387Z,22.70
2023-03-24T17:58:12.618Z,23.50
2023-03-24T18:00:44.917Z,28.90
2023-03-24T18:03:23.122Z,27.30
2023-03-24T18:05:54.701Z,27.60
2023-03-24T18:08:28.606Z,29.90
2023-03-24T18:11:10.409Z,24.90
2023-03-24T18:13:39.139Z,26.30
2023-03-24T18:16:20.034Z,18.40
2023-03-24T18:18:51.361Z,30.00
2023-03-24T18:21:21.045Z,24.30
2023-03-24T18:23:49.826Z,25.50
2023-03-24T18:26:21.128Z,23.30
2023-03-24T18:28:53.269Z,19.00
2023-03-24T18:31:26.318Z,19.40
2023-03-24T18:34:52.214Z,27.70
2023-03-24T18:38:01.239Z,18.70
2023-03-24T18:40:33.646Z,32.90
2023-03-24T18:43:01.209Z,24.60
2023-03-24T18:45:33.136Z,19.60
2023-03-24T18:48:06.329Z,26.20
2023-03-24T18:50:34.853Z,28.60
2023-03-24T18:53:05.427Z,25.80
2023-03-24T18:55:35.356Z,20.40
2023-03-24T18:58:04.325Z,20.20
2023-03-24T19:00:35.365Z,19.80
2023-03-24T19:05:41.254Z,15.70
2023-03-24T19:08:29.058Z,17.90
2023-03-24T19:11:04.803Z,20.00
2023-03-24T19:13:39.948Z,23.00
2023-03-24T19:16:10.131Z,24.30
2023-03-24T19:18:41.880Z,23.50
2023-03-24T19:21:19.818Z,22.00
2023-03-24T19:23:54.335Z,18.60
2023-03-24T19:26:22.678Z,24.60
2023-03-24T19:28:53.277Z,21.30
2023-03-24T19:31:25.410Z,24.00
2023-03-24T19:33:56.659Z,23.60
2023-03-24T19:36:28.589Z,22.20
2023-03-24T19:39:01.643Z,19.70
2023-03-24T19:41:29.950Z,22.40
2023-03-24T19:43:59.398Z,20.40
2023-03-24T19:46:32.350Z,20.30
2023-03-24T19:48:59.844Z,24.20
2023-03-24T19:51:30.054Z,14.70
2023-03-24T19:53:57.758Z,20.10
2023-03-24T19:56:29.418Z,16.90
2023-03-24T19:59:07.224Z,17.50
2023-03-24T20:01:36.086Z,17.00
2023-03-24T20:04:04.761Z,20.10
2023-03-24T20:06:42.720Z,18.90
2023-03-24T20:09:17.032Z,21.70
2023-03-24T20:11:47.689Z,22.10
2023-03-24T20:14:27.864Z,18.30
2023-03-24T20:17:14.624Z,28.90
2023-03-24T20:19:47.439Z,23.80
2023-03-24T20:22:23.967Z,35.50
2023-03-24T20:31:43.122Z,31.70
2023-03-24T20:34:13.213Z,23.30
2023-03-24T20:36:43.528Z,26.90
2023-03-24T20:39:17.182Z,28.20
2023-03-24T20:41:47.934Z,29.30
2023-03-24T20:44:17.646Z,25.50
2023-03-24T20:46:50.545Z,27.40
2023-03-24T20:56:32.455Z,35.60
2023-03-24T20:59:02.954Z,37.80
2023-03-24T21:01:37.381Z,36.00
2023-03-24T21:04:10.617Z,42.20
2023-03-24T21:06:42.409Z,40.50
2023-03-24T21:09:14.342Z,36.20
2023-03-24T21:11:48.775Z,34.70
2023-03-24T21:14:17.663Z,35.40
2023-03-24T21:17:13.592Z,29.90
2023-03-24T21:19:47.322Z,41.90
2023-03-24T21:22:16.717Z,31.90
2023-03-24T21:24:59.839Z,30.80
2023-03-24T21:27:28.456Z,32.70
2023-03-24T21:30:01.505Z,30.80
2023-03-24T21:32:31.880Z,34.30
2023-03-24T21:35:01.218Z,24.90
2023-03-24T21:37:31.916Z,33.40
2023-03-24T21:40:02.507Z,31.80
2023-03-24T21:42:35.385Z,33.30
2023-03-24T21:45:04.888Z,39.50
2023-03-24T21:47:36.401Z,37.50
2023-03-24T21:50:07.354Z,35.30
2023-03-24T21:52:39.649Z,37.10
2023-03-24T21:55:14.976Z,38.70
2023-03-24T21:57:46.835Z,40.80
2023-03-24T22:00:24.888Z,41.00
2023-03-24T22:02:55.418Z,39.20
2023-03-24T22:05:25.611Z,40.30
2023-03-24T22:07:56.966Z,41.20
2023-03-24T22:10:30.040Z,34.80
2023-03-24T22:12:58.421Z,45.10
2023-03-24T22:15:27.277Z,34.60
